sensor_id;sensor_type;location;lat;lon;timestamp;pressure;altitude;pressure_sealevel;temperature;humidity
70248;BME280;57641;51.416;5.506;2022-07-22T00:01:34;102245.44;;;22.12;57.39
70248;BME280;57641;51.416;5.506;2022-07-22T00:03:59;102241.72;;;22.13;57.62
70248;BME280;57641;51.416;5.506;2022-07-22T00:06:26;102245.44;;;22.12;57.63
70248;BME280;57641;51.416;5.506;2022-07-22T00:08:52;102248.34;;;22.10;57.03
70248;BME280;57641;51.416;5.506;2022-07-22T00:11:17;102253.41;;;22.13;57.55
70248;BME280;57641;51.416;5.506;2022-07-22T00:13:43;102249.00;;;22.12;57.77
70248;BME280;57641;51.416;5.506;2022-07-22T00:16:10;102249.00;;;22.12;57.49
70248;BME280;57641;51.416;5.506;2022-07-22T00:18:36;102255.94;;;22.15;57.86
70248;BME280;57641;51.416;5.506;2022-07-22T00:21:02;102251.97;;;22.17;58.19
70248;BME280;57641;51.416;5.506;2022-07-22T00:23:27;102249.94;;;22.19;57.96
70248;BME280;57641;51.416;5.506;2022-07-22T00:25:53;102252.63;;;22.19;58.10
70248;BME280;57641;51.416;5.506;2022-07-22T00:28:19;102256.38;;;22.18;58.81
70248;BME280;57641;51.416;5.506;2022-07-22T00:30:45;102258.91;;;22.20;58.67
70248;BME280;57641;51.416;5.506;2022-07-22T00:33:11;102257.22;;;22.19;57.27
70248;BME280;57641;51.416;5.506;2022-07-22T00:35:36;102254.06;;;22.15;57.00
70248;BME280;57641;51.416;5.506;2022-07-22T00:38:02;102253.22;;;22.15;57.00
70248;BME280;57641;51.416;5.506;2022-07-22T00:40:27;102244.69;;;22.18;57.13
70248;BME280;57641;51.416;5.506;2022-07-22T00:42:53;102255.53;;;22.18;57.28
70248;BME280;57641;51.416;5.506;2022-07-22T00:45:19;102241.31;;;22.16;58.34
70248;BME280;57641;51.416;5.506;2022-07-22T00:47:45;102243.66;;;22.19;58.54
70248;BME280;57641;51.416;5.506;2022-07-22T00:50:12;102240.94;;;22.19;58.09
70248;BME280;57641;51.416;5.506;2022-07-22T00:52:42;102240.09;;;22.18;57.72
70248;BME280;57641;51.416;5.506;2022-07-22T00:55:09;102236.34;;;22.19;57.81
70248;BME280;57641;51.416;5.506;2022-07-22T00:57:35;102232.78;;;22.19;57.54
70248;BME280;57641;51.416;5.506;2022-07-22T01:00:00;102234.22;;;22.15;57.16
70248;BME280;57641;51.416;5.506;2022-07-22T01:02:26;102234.22;;;22.15;57.55
70248;BME280;57641;51.416;5.506;2022-07-22T01:04:52;102232.34;;;22.15;57.08
70248;BME280;57641;51.416;5.506;2022-07-22T01:07:18;102237.13;;;22.13;57.11
70248;BME280;57641;51.416;5.506;2022-07-22T01:09:44;102228.97;;;22.13;56.85
70248;BME280;57641;51.416;5.506;2022-07-22T01:12:13;102228.78;;;22.15;57.48
70248;BME280;57641;51.416;5.506;2022-07-22T01:14:39;102225.22;;;22.14;57.93
70248;BME280;57641;51.416;5.506;2022-07-22T01:17:06;102230.44;;;22.16;58.10
70248;BME280;57641;51.416;5.506;2022-07-22T01:19:31;102233.38;;;22.14;56.75
70248;BME280;57641;51.416;5.506;2022-07-22T01:21:57;102224.31;;;22.07;57.09
70248;BME280;57641;51.416;5.506;2022-07-22T01:24:22;102229.56;;;22.09;56.98
70248;BME280;57641;51.416;5.506;2022-07-22T01:26:48;102225.59;;;22.11;56.54
70248;BME280;57641;51.416;5.506;2022-07-22T01:29:13;102225.59;;;22.11;56.54
70248;BME280;57641;51.416;5.506;2022-07-22T01:31:39;102223.09;;;22.10;56.87
70248;BME280;57641;51.416;5.506;2022-07-22T01:34:04;102221.00;;;22.12;56.81
70248;BME280;57641;51.416;5.506;2022-07-22T01:36:30;102226.06;;;22.15;57.30
70248;BME280;57641;51.416;5.506;2022-07-22T01:38:56;102219.56;;;22.16;57.42
70248;BME280;57641;51.416;5.506;2022-07-22T01:41:22;102229.41;;;22.17;58.04
70248;BME280;57641;51.416;5.506;2022-07-22T01:43:48;102225.22;;;22.14;58.35
70248;BME280;57641;51.416;5.506;2022-07-22T01:46:14;102228.31;;;22.11;58.87
70248;BME280;57641;51.416;5.506;2022-07-22T01:48:40;102234.16;;;22.08;59.31
70248;BME280;57641;51.416;5.506;2022-07-22T01:51:06;102228.91;;;22.07;59.50
70248;BME280;57641;51.416;5.506;2022-07-22T01:53:31;102229.31;;;22.04;59.64
70248;BME280;57641;51.416;5.506;2022-07-22T01:55:57;102227.63;;;22.03;59.73
70248;BME280;57641;51.416;5.506;2022-07-22T01:58:23;102228.66;;;22.02;59.59
70248;BME280;57641;51.416;5.506;2022-07-22T02:00:49;102239.81;;;21.92;59.53
70248;BME280;57641;51.416;5.506;2022-07-22T02:03:14;102236.44;;;21.90;59.95
70248;BME280;57641;51.416;5.506;2022-07-22T02:05:40;102233.88;;;21.82;59.80
70248;BME280;57641;51.416;5.506;2022-07-22T02:08:08;102231.53;;;21.79;59.93
70248;BME280;57641;51.416;5.506;2022-07-22T02:10:34;102226.03;;;21.72;60.05
70248;BME280;57641;51.416;5.506;2022-07-22T02:13:01;102221.91;;;21.76;60.25
70248;BME280;57641;51.416;5.506;2022-07-22T02:15:26;102223.59;;;21.77;60.41
70248;BME280;57641;51.416;5.506;2022-07-22T02:17:53;102219.00;;;21.78;59.91
70248;BME280;57641;51.416;5.506;2022-07-22T02:20:19;102219.00;;;21.78;60.25
70248;BME280;57641;51.416;5.506;2022-07-22T02:22:45;102224.22;;;21.79;59.88
70248;BME280;57641;51.416;5.506;2022-07-22T02:25:11;102219.81;;;21.78;60.05
70248;BME280;57641;51.416;5.506;2022-07-22T02:27:37;102220.03;;;21.77;60.13
70248;BME280;57641;51.416;5.506;2022-07-22T02:30:04;102225.84;;;21.74;60.02
70248;BME280;57641;51.416;5.506;2022-07-22T02:32:30;102221.19;;;21.68;60.03
70248;BME280;57641;51.416;5.506;2022-07-22T02:34:56;102228.50;;;21.67;60.47
70248;BME280;57641;51.416;5.506;2022-07-22T02:37:21;102222.84;;;21.69;60.29
70248;BME280;57641;51.416;5.506;2022-07-22T02:39:47;102222.66;;;21.70;60.19
70248;BME280;57641;51.416;5.506;2022-07-22T02:42:13;102218.28;;;21.69;60.61
70248;BME280;57641;51.416;5.506;2022-07-22T02:44:38;102213.88;;;21.68;60.48
70248;BME280;57641;51.416;5.506;2022-07-22T02:47:03;102208.25;;;21.70;60.37
70248;BME280;57641;51.416;5.506;2022-07-22T02:49:29;102210.97;;;21.70;60.25
70248;BME280;57641;51.416;5.506;2022-07-22T02:51:54;102206.56;;;21.69;60.38
70248;BME280;57641;51.416;5.506;2022-07-22T02:54:20;102201.13;;;21.69;60.29
70248;BME280;57641;51.416;5.506;2022-07-22T02:56:46;102199.09;;;21.71;60.62
70248;BME280;57641;51.416;5.506;2022-07-22T02:59:11;102195.59;;;21.77;60.09
70248;BME280;57641;51.416;5.506;2022-07-22T03:01:36;102191.84;;;21.78;60.13
70248;BME280;57641;51.416;5.506;2022-07-22T03:04:02;102191.63;;;21.79;60.16
70248;BME280;57641;51.416;5.506;2022-07-22T03:06:27;102198.56;;;21.82;60.08
70248;BME280;57641;51.416;5.506;2022-07-22T03:08:53;102195.84;;;21.82;60.39
70248;BME280;57641;51.416;5.506;2022-07-22T03:11:19;102196.22;;;21.79;60.11
70248;BME280;57641;51.416;5.506;2022-07-22T03:13:44;102190.16;;;21.77;60.26
70248;BME280;57641;51.416;5.506;2022-07-22T03:16:09;102197.03;;;21.73;60.15
70248;BME280;57641;51.416;5.506;2022-07-22T03:18:35;102191.34;;;21.68;60.41
70248;BME280;57641;51.416;5.506;2022-07-22T03:21:00;102196.78;;;21.68;60.32
70248;BME280;57641;51.416;5.506;2022-07-22T03:23:26;102199.66;;;21.66;60.46
70248;BME280;57641;51.416;5.506;2022-07-22T03:25:51;102198.16;;;21.64;60.54
70248;BME280;57641;51.416;5.506;2022-07-22T03:28:17;102196.03;;;21.59;60.33
70248;BME280;57641;51.416;5.506;2022-07-22T03:30:42;102199.78;;;21.58;60.51
70248;BME280;57641;51.416;5.506;2022-07-22T03:33:08;102192.47;;;21.59;60.45
70248;BME280;57641;51.416;5.506;2022-07-22T03:35:33;102187.25;;;21.57;60.57
70248;BME280;57641;51.416;5.506;2022-07-22T03:37:58;102191.19;;;21.55;60.63
70248;BME280;57641;51.416;5.506;2022-07-22T03:40:24;102191.00;;;21.56;60.81
70248;BME280;57641;51.416;5.506;2022-07-22T03:42:49;102195.41;;;21.57;60.74
70248;BME280;57641;51.416;5.506;2022-07-22T03:45:15;102197.28;;;21.57;60.50
70248;BME280;57641;51.416;5.506;2022-07-22T03:47:41;102199.72;;;21.52;60.54
70248;BME280;57641;51.416;5.506;2022-07-22T03:50:07;102200.75;;;21.51;60.28
70248;BME280;57641;51.416;5.506;2022-07-22T03:52:33;102210.59;;;21.52;60.47
70248;BME280;57641;51.416;5.506;2022-07-22T03:54:58;102207.22;;;21.49;60.50
70248;BME280;57641;51.416;5.506;2022-07-22T03:57:24;102208.91;;;21.51;60.75
70248;BME280;57641;51.416;5.506;2022-07-22T03:59:49;102202.63;;;21.50;60.84
70248;BME280;57641;51.416;5.506;2022-07-22T04:02:15;102216.19;;;21.50;60.62
70248;BME280;57641;51.416;5.506;2022-07-22T04:04:40;102199.91;;;21.50;60.55
70248;BME280;57641;51.416;5.506;2022-07-22T04:07:06;102211.78;;;21.49;60.95
70248;BME280;57641;51.416;5.506;2022-07-22T04:09:32;102210.38;;;21.53;61.05
70248;BME280;57641;51.416;5.506;2022-07-22T04:11:58;102206.81;;;21.53;61.03
70248;BME280;57641;51.416;5.506;2022-07-22T04:14:23;102210.38;;;21.53;61.19
70248;BME280;57641;51.416;5.506;2022-07-22T04:16:49;102213.66;;;21.48;61.02
70248;BME280;57641;51.416;5.506;2022-07-22T04:19:15;102208.06;;;21.50;61.53
70248;BME280;57641;51.416;5.506;2022-07-22T04:21:40;102214.97;;;21.53;61.36
70248;BME280;57641;51.416;5.506;2022-07-22T04:24:10;102213.94;;;21.54;61.25
70248;BME280;57641;51.416;5.506;2022-07-22T04:26:35;102214.59;;;21.56;61.16
70248;BME280;57641;51.416;5.506;2022-07-22T04:29:03;102219.16;;;21.55;61.26
70248;BME280;57641;51.416;5.506;2022-07-22T04:31:28;102212.91;;;21.55;61.59
70248;BME280;57641;51.416;5.506;2022-07-22T04:33:54;102210.84;;;21.57;61.45
70248;BME280;57641;51.416;5.506;2022-07-22T04:36:20;102211.69;;;21.57;61.38
70248;BME280;57641;51.416;5.506;2022-07-22T04:38:45;102210.44;;;21.60;61.33
70248;BME280;57641;51.416;5.506;2022-07-22T04:41:10;102206.53;;;21.62;61.28
70248;BME280;57641;51.416;5.506;2022-07-22T04:43:36;102213.59;;;21.63;61.40
70248;BME280;57641;51.416;5.506;2022-07-22T04:46:01;102204.44;;;21.64;61.62
70248;BME280;57641;51.416;5.506;2022-07-22T04:48:27;102210.53;;;21.66;61.45
70248;BME280;57641;51.416;5.506;2022-07-22T04:50:52;102206.78;;;21.67;61.72
70248;BME280;57641;51.416;5.506;2022-07-22T04:53:18;102211.81;;;21.70;61.65
70248;BME280;57641;51.416;5.506;2022-07-22T04:55:43;102203.66;;;21.70;61.50
70248;BME280;57641;51.416;5.506;2022-07-22T04:58:08;102197.03;;;21.73;61.59
70248;BME280;57641;51.416;5.506;2022-07-22T05:00:34;102199.53;;;21.74;61.38
70248;BME280;57641;51.416;5.506;2022-07-22T05:03:00;102185.94;;;21.74;61.68
70248;BME280;57641;51.416;5.506;2022-07-22T05:05:25;102191.84;;;21.78;61.58
70248;BME280;57641;51.416;5.506;2022-07-22T05:07:51;102184.16;;;21.81;61.69
70248;BME280;57641;51.416;5.506;2022-07-22T05:10:16;102192.28;;;21.81;61.32
70248;BME280;57641;51.416;5.506;2022-07-22T05:12:42;102185.84;;;21.82;61.56
70248;BME280;57641;51.416;5.506;2022-07-22T05:15:08;102191.53;;;21.87;61.61
70248;BME280;57641;51.416;5.506;2022-07-22T05:17:33;102185.06;;;21.88;61.39
70248;BME280;57641;51.416;5.506;2022-07-22T05:20:02;102190.75;;;21.94;61.28
70248;BME280;57641;51.416;5.506;2022-07-22T05:22:28;102190.56;;;21.95;61.29
70248;BME280;57641;51.416;5.506;2022-07-22T05:24:53;102191.88;;;21.99;61.15
70248;BME280;57641;51.416;5.506;2022-07-22T05:27:18;102186.22;;;22.01;61.17
70248;BME280;57641;51.416;5.506;2022-07-22T05:29:44;102186.47;;;22.06;60.85
70248;BME280;57641;51.416;5.506;2022-07-22T05:32:09;102183.38;;;22.09;60.52
70248;BME280;57641;51.416;5.506;2022-07-22T05:34:35;102183.81;;;22.12;60.51
70248;BME280;57641;51.416;5.506;2022-07-22T05:37:00;102190.53;;;22.16;60.55
70248;BME280;57641;51.416;5.506;2022-07-22T05:39:25;102187.63;;;22.18;60.24
70248;BME280;57641;51.416;5.506;2022-07-22T05:41:51;102185.16;;;22.23;60.72
70248;BME280;57641;51.416;5.506;2022-07-22T05:44:16;102187.69;;;22.24;59.40
70248;BME280;57641;51.416;5.506;2022-07-22T05:46:42;102195.44;;;22.27;58.62
70248;BME280;57641;51.416;5.506;2022-07-22T05:49:07;102196.09;;;22.29;58.00
70248;BME280;57641;51.416;5.506;2022-07-22T05:51:33;102196.31;;;22.35;58.22
70248;BME280;57641;51.416;5.506;2022-07-22T05:54:00;102189.63;;;22.37;58.75
70248;BME280;57641;51.416;5.506;2022-07-22T05:56:27;102190.94;;;22.41;57.76
70248;BME280;57641;51.416;5.506;2022-07-22T05:58:53;102197.22;;;22.42;56.61
70248;BME280;57641;51.416;5.506;2022-07-22T06:01:19;102203.03;;;22.39;55.62
70248;BME280;57641;51.416;5.506;2022-07-22T06:03:44;102200.97;;;22.41;56.13
70248;BME280;57641;51.416;5.506;2022-07-22T06:06:09;102196.16;;;22.43;56.17
70248;BME280;57641;51.416;5.506;2022-07-22T06:08:36;102194.75;;;22.47;56.38
70248;BME280;57641;51.416;5.506;2022-07-22T06:11:02;102194.34;;;22.50;57.06
70248;BME280;57641;51.416;5.506;2022-07-22T06:13:28;102203.16;;;22.52;56.40
70248;BME280;57641;51.416;5.506;2022-07-22T06:15:53;102200.84;;;22.55;56.44
70248;BME280;57641;51.416;5.506;2022-07-22T06:18:18;102197.53;;;22.60;55.54
70248;BME280;57641;51.416;5.506;2022-07-22T06:20:44;102202.53;;;22.56;56.06
70248;BME280;57641;51.416;5.506;2022-07-22T06:23:09;102200.06;;;22.61;55.92
70248;BME280;57641;51.416;5.506;2022-07-22T06:25:35;102201.75;;;22.62;55.67
70248;BME280;57641;51.416;5.506;2022-07-22T06:28:01;102204.72;;;22.67;56.34
70248;BME280;57641;51.416;5.506;2022-07-22T06:30:26;102202.25;;;22.72;57.00
70248;BME280;57641;51.416;5.506;2022-07-22T06:32:52;102200.66;;;22.57;54.30
70248;BME280;57641;51.416;5.506;2022-07-22T06:35:18;102201.53;;;22.64;54.65
70248;BME280;57641;51.416;5.506;2022-07-22T06:37:43;102196.81;;;22.72;54.96
70248;BME280;57641;51.416;5.506;2022-07-22T06:40:09;102188.47;;;22.81;54.24
70248;BME280;57641;51.416;5.506;2022-07-22T06:42:35;102193.13;;;22.87;55.37
70248;BME280;57641;51.416;5.506;2022-07-22T06:45:00;102188.34;;;22.89;55.68
70248;BME280;57641;51.416;5.506;2022-07-22T06:47:26;102195.88;;;22.93;55.30
70248;BME280;57641;51.416;5.506;2022-07-22T06:49:51;102191.91;;;22.96;55.31
70248;BME280;57641;51.416;5.506;2022-07-22T06:52:16;102200.06;;;22.96;52.96
70248;BME280;57641;51.416;5.506;2022-07-22T06:54:42;102190.72;;;23.05;50.70
70248;BME280;57641;51.416;5.506;2022-07-22T06:57:07;102192.78;;;23.03;48.01
70248;BME280;57641;51.416;5.506;2022-07-22T06:59:33;102193.81;;;23.02;49.97
70248;BME280;57641;51.416;5.506;2022-07-22T07:01:58;102205.13;;;23.05;50.67
70248;BME280;57641;51.416;5.506;2022-07-22T07:04:23;102190.09;;;23.09;51.12
70248;BME280;57641;51.416;5.506;2022-07-22T07:06:49;102189.88;;;23.11;51.08
70248;BME280;57641;51.416;5.506;2022-07-22T07:09:14;102193.66;;;23.16;53.22
70248;BME280;57641;51.416;5.506;2022-07-22T07:11:40;102177.38;;;23.23;54.21
70248;BME280;57641;51.416;5.506;2022-07-22T07:14:05;102182.88;;;23.36;53.22
70248;BME280;57641;51.416;5.506;2022-07-22T07:16:31;102186.47;;;23.50;52.46
70248;BME280;57641;51.416;5.506;2022-07-22T07:18:56;102174.78;;;23.63;52.05
70248;BME280;57641;51.416;5.506;2022-07-22T07:21:22;102173.34;;;23.73;51.26
70248;BME280;57641;51.416;5.506;2022-07-22T07:23:48;102170.00;;;23.84;49.74
70248;BME280;57641;51.416;5.506;2022-07-22T07:26:13;102186.13;;;23.92;48.53
70248;BME280;57641;51.416;5.506;2022-07-22T07:28:39;102177.94;;;23.92;45.46
70248;BME280;57641;51.416;5.506;2022-07-22T07:31:05;102175.63;;;23.96;46.89
70248;BME280;57641;51.416;5.506;2022-07-22T07:33:31;102171.66;;;23.92;45.91
70248;BME280;57641;51.416;5.506;2022-07-22T07:35:56;102178.78;;;23.93;44.35
70248;BME280;57641;51.416;5.506;2022-07-22T07:38:22;102183.81;;;23.63;46.21
70248;BME280;57641;51.416;5.506;2022-07-22T07:40:48;102182.75;;;23.58;47.29
70248;BME280;57641;51.416;5.506;2022-07-22T07:43:13;102176.66;;;23.62;48.22
70248;BME280;57641;51.416;5.506;2022-07-22T07:45:39;102171.00;;;23.64;47.20
70248;BME280;57641;51.416;5.506;2022-07-22T07:48:05;102164.09;;;23.61;44.80
70248;BME280;57641;51.416;5.506;2022-07-22T07:50:30;102162.00;;;23.70;45.91
70248;BME280;57641;51.416;5.506;2022-07-22T07:52:56;102166.00;;;23.80;47.99
70248;BME280;57641;51.416;5.506;2022-07-22T07:55:22;102171.84;;;23.90;46.58
70248;BME280;57641;51.416;5.506;2022-07-22T07:57:48;102168.09;;;23.91;46.25
70248;BME280;57641;51.416;5.506;2022-07-22T08:00:15;102175.22;;;23.99;46.72
70248;BME280;57641;51.416;5.506;2022-07-22T08:02:42;102172.09;;;24.09;46.97
70248;BME280;57641;51.416;5.506;2022-07-22T08:05:09;102171.03;;;24.16;46.02
70248;BME280;57641;51.416;5.506;2022-07-22T08:07:35;102172.72;;;24.17;44.63
70248;BME280;57641;51.416;5.506;2022-07-22T08:10:01;102169.59;;;24.20;45.16
70248;BME280;57641;51.416;5.506;2022-07-22T08:12:27;102174.41;;;24.18;44.62
70248;BME280;57641;51.416;5.506;2022-07-22T08:14:52;102176.69;;;24.15;44.71
70248;BME280;57641;51.416;5.506;2022-07-22T08:17:18;102169.81;;;24.19;45.61
70248;BME280;57641;51.416;5.506;2022-07-22T08:19:43;102162.03;;;24.22;46.05
70248;BME280;57641;51.416;5.506;2022-07-22T08:22:09;102170.41;;;24.34;47.01
70248;BME280;57641;51.416;5.506;2022-07-22T08:24:34;102172.69;;;24.44;45.83
70248;BME280;57641;51.416;5.506;2022-07-22T08:27:00;102171.00;;;24.56;45.30
70248;BME280;57641;51.416;5.506;2022-07-22T08:29:25;102167.66;;;24.47;42.54
70248;BME280;57641;51.416;5.506;2022-07-22T08:31:51;102165.34;;;24.57;45.08
70248;BME280;57641;51.416;5.506;2022-07-22T08:34:17;102171.59;;;24.64;45.04
70248;BME280;57641;51.416;5.506;2022-07-22T08:36:42;102168.19;;;24.75;44.36
70248;BME280;57641;51.416;5.506;2022-07-22T08:39:08;102165.91;;;24.79;43.17
70248;BME280;57641;51.416;5.506;2022-07-22T08:41:36;102160.63;;;24.84;43.06
70248;BME280;57641;51.416;5.506;2022-07-22T08:44:06;102162.09;;;24.93;42.89
70248;BME280;57641;51.416;5.506;2022-07-22T08:46:32;102162.72;;;24.95;42.82
70248;BME280;57641;51.416;5.506;2022-07-22T08:48:59;102163.97;;;24.99;41.53
70248;BME280;57641;51.416;5.506;2022-07-22T08:51:27;102158.88;;;25.09;43.30
70248;BME280;57641;51.416;5.506;2022-07-22T08:53:54;102158.22;;;25.14;42.23
70248;BME280;57641;51.416;5.506;2022-07-22T08:56:20;102154.22;;;25.16;42.46
70248;BME280;57641;51.416;5.506;2022-07-22T08:58:46;102151.03;;;25.26;42.58
70248;BME280;57641;51.416;5.506;2022-07-22T09:01:13;102149.97;;;25.27;41.28
70248;BME280;57641;51.416;5.506;2022-07-22T09:03:55;102149.06;;;25.33;42.57
70248;BME280;57641;51.416;5.506;2022-07-22T09:06:26;102163.75;;;25.39;43.68
70248;BME280;57641;51.416;5.506;2022-07-22T09:08:53;102157.81;;;25.48;44.09
70248;BME280;57641;51.416;5.506;2022-07-22T09:11:20;102160.31;;;25.56;44.68
70248;BME280;57641;51.416;5.506;2022-07-22T09:13:46;102155.47;;;25.58;44.24
70248;BME280;57641;51.416;5.506;2022-07-22T09:16:12;102145.81;;;25.49;45.36
70248;BME280;57641;51.416;5.506;2022-07-22T09:21:11;102141.81;;;25.52;44.92
70248;BME280;57641;51.416;5.506;2022-07-22T09:23:40;102138.25;;;25.58;44.54
70248;BME280;57641;51.416;5.506;2022-07-22T09:26:06;102146.22;;;25.53;43.45
70248;BME280;57641;51.416;5.506;2022-07-22T09:28:32;102130.50;;;25.48;43.11
70248;BME280;57641;51.416;5.506;2022-07-22T09:30:58;102134.03;;;25.55;43.43
70248;BME280;57641;51.416;5.506;2022-07-22T09:33:23;102133.84;;;25.57;42.08
70248;BME280;57641;51.416;5.506;2022-07-22T09:35:49;102121.22;;;25.56;42.04
70248;BME280;57641;51.416;5.506;2022-07-22T09:38:16;102122.91;;;25.57;42.83
70248;BME280;57641;51.416;5.506;2022-07-22T09:40:45;102122.25;;;25.55;42.17
70248;BME280;57641;51.416;5.506;2022-07-22T09:43:18;102128.16;;;25.52;43.06
70248;BME280;57641;51.416;5.506;2022-07-22T09:45:56;102110.47;;;25.54;41.31
70248;BME280;57641;51.416;5.506;2022-07-22T09:48:25;102121.31;;;25.43;40.81
70248;BME280;57641;51.416;5.506;2022-07-22T09:50:53;102125.31;;;25.40;40.41
70248;BME280;57641;51.416;5.506;2022-07-22T09:53:21;102128.06;;;25.34;40.29
70248;BME280;57641;51.416;5.506;2022-07-22T09:55:48;102133.31;;;25.35;39.65
70248;BME280;57641;51.416;5.506;2022-07-22T09:58:14;102131.59;;;25.41;40.83
70248;BME280;57641;51.416;5.506;2022-07-22T10:00:41;102125.25;;;25.47;42.08
70248;BME280;57641;51.416;5.506;2022-07-22T10:03:12;102122.53;;;25.47;40.29
70248;BME280;57641;51.416;5.506;2022-07-22T10:05:40;102124.66;;;25.38;39.91
70248;BME280;57641;51.416;5.506;2022-07-22T10:08:07;102124.47;;;25.40;41.13
70248;BME280;57641;51.416;5.506;2022-07-22T10:10:34;102132.63;;;25.46;41.64
70248;BME280;57641;51.416;5.506;2022-07-22T10:13:03;102116.63;;;25.50;41.78
70248;BME280;57641;51.416;5.506;2022-07-22T10:15:31;102109.72;;;25.47;40.10
70248;BME280;57641;51.416;5.506;2022-07-22T10:17:59;102125.66;;;25.50;40.53
70248;BME280;57641;51.416;5.506;2022-07-22T10:20:28;102115.94;;;25.54;41.13
70248;BME280;57641;51.416;5.506;2022-07-22T10:22:59;102121.19;;;25.62;42.31
70248;BME280;57641;51.416;5.506;2022-07-22T10:25:31;102128.25;;;25.70;42.33
70248;BME280;57641;51.416;5.506;2022-07-22T10:28:01;102128.88;;;25.72;42.59
70248;BME280;57641;51.416;5.506;2022-07-22T10:30:35;102125.53;;;25.70;42.40
70248;BME280;57641;51.416;5.506;2022-07-22T10:33:14;102125.34;;;25.65;41.73
70248;BME280;57641;51.416;5.506;2022-07-22T10:38:11;102115.75;;;25.56;42.07
70248;BME280;57641;51.416;5.506;2022-07-22T10:40:55;102133.00;;;25.50;42.03
70248;BME280;57641;51.416;5.506;2022-07-22T10:43:26;102125.75;;;25.69;42.26
70248;BME280;57641;51.416;5.506;2022-07-22T10:45:57;102118.84;;;25.91;41.30
70248;BME280;57641;51.416;5.506;2022-07-22T10:51:10;102118.44;;;25.87;40.68
70248;BME280;57641;51.416;5.506;2022-07-22T10:56:33;102106.34;;;25.77;40.08
70248;BME280;57641;51.416;5.506;2022-07-22T10:59:09;102109.66;;;25.85;41.05
70248;BME280;57641;51.416;5.506;2022-07-22T11:01:40;102110.75;;;25.78;41.74
70248;BME280;57641;51.416;5.506;2022-07-22T11:06:38;102096.81;;;25.86;41.04
70248;BME280;57641;51.416;5.506;2022-07-22T11:09:11;102093.91;;;26.05;41.54
70248;BME280;57641;51.416;5.506;2022-07-22T11:11:50;102102.25;;;26.11;41.26
70248;BME280;57641;51.416;5.506;2022-07-22T11:14:19;102101.97;;;26.19;40.13
70248;BME280;57641;51.416;5.506;2022-07-22T11:16:48;102105.44;;;26.32;40.60
70248;BME280;57641;51.416;5.506;2022-07-22T11:19:13;102097.28;;;26.44;39.95
70248;BME280;57641;51.416;5.506;2022-07-22T11:21:39;102092.44;;;26.46;39.47
70248;BME280;57641;51.416;5.506;2022-07-22T11:24:06;102098.53;;;26.48;40.58
70248;BME280;57641;51.416;5.506;2022-07-22T11:26:37;102095.84;;;26.41;39.56
70248;BME280;57641;51.416;5.506;2022-07-22T11:29:04;102091.28;;;26.35;40.41
70248;BME280;57641;51.416;5.506;2022-07-22T11:31:30;102090.31;;;26.48;40.88
70248;BME280;57641;51.416;5.506;2022-07-22T11:34:25;102084.53;;;26.56;40.27
70248;BME280;57641;51.416;5.506;2022-07-22T11:36:51;102090.97;;;26.62;39.93
70248;BME280;57641;51.416;5.506;2022-07-22T11:39:27;102073.66;;;26.68;38.22
70248;BME280;57641;51.416;5.506;2022-07-22T11:41:55;102073.47;;;26.81;38.29
70248;BME280;57641;51.416;5.506;2022-07-22T11:44:24;102065.50;;;26.79;37.99
70248;BME280;57641;51.416;5.506;2022-07-22T11:46:50;102062.28;;;26.82;38.41
70248;BME280;57641;51.416;5.506;2022-07-22T11:49:18;102052.19;;;27.13;38.54
70248;BME280;57641;51.416;5.506;2022-07-22T11:51:45;102047.69;;;27.07;38.57
70248;BME280;57641;51.416;5.506;2022-07-22T11:54:11;102041.59;;;27.05;37.69
70248;BME280;57641;51.416;5.506;2022-07-22T11:56:37;102038.28;;;27.14;38.82
70248;BME280;57641;51.416;5.506;2022-07-22T11:59:04;102051.75;;;27.16;39.06
70248;BME280;57641;51.416;5.506;2022-07-22T12:01:35;102035.66;;;27.19;37.57
70248;BME280;57641;51.416;5.506;2022-07-22T12:04:12;102033.31;;;27.35;38.18
70248;BME280;57641;51.416;5.506;2022-07-22T12:06:42;102024.50;;;27.33;38.32
70248;BME280;57641;51.416;5.506;2022-07-22T12:09:13;102020.94;;;27.32;38.05
70248;BME280;57641;51.416;5.506;2022-07-22T12:11:41;102020.97;;;27.44;38.02
70248;BME280;57641;51.416;5.506;2022-07-22T12:14:12;102020.25;;;27.48;38.02
70248;BME280;57641;51.416;5.506;2022-07-22T12:16:39;102012.25;;;27.47;38.15
70248;BME280;57641;51.416;5.506;2022-07-22T12:21:33;102014.53;;;27.50;37.20
70248;BME280;57641;51.416;5.506;2022-07-22T12:24:04;102021.38;;;27.29;36.68
70248;BME280;57641;51.416;5.506;2022-07-22T12:26:38;102011.25;;;27.18;36.61
70248;BME280;57641;51.416;5.506;2022-07-22T12:29:17;102014.16;;;27.23;36.37
70248;BME280;57641;51.416;5.506;2022-07-22T12:31:45;102015.78;;;27.12;36.98
70248;BME280;57641;51.416;5.506;2022-07-22T12:34:12;102012.94;;;27.19;36.87
70248;BME280;57641;51.416;5.506;2022-07-22T12:36:38;102006.41;;;27.31;37.92
70248;BME280;57641;51.416;5.506;2022-07-22T12:39:15;102016.03;;;27.34;37.29
70248;BME280;57641;51.416;5.506;2022-07-22T12:41:49;102016.53;;;27.43;37.84
70248;BME280;57641;51.416;5.506;2022-07-22T12:44:19;102014.66;;;27.55;37.13
70248;BME280;57641;51.416;5.506;2022-07-22T12:46:51;102017.91;;;27.63;37.20
70248;BME280;57641;51.416;5.506;2022-07-22T12:49:23;102023.50;;;27.68;36.54
70248;BME280;57641;51.416;5.506;2022-07-22T12:52:24;102019.19;;;27.72;37.56
70248;BME280;57641;51.416;5.506;2022-07-22T12:54:50;102012.66;;;27.62;37.53
70248;BME280;57641;51.416;5.506;2022-07-22T12:57:15;102014.22;;;27.69;37.15
70248;BME280;57641;51.416;5.506;2022-07-22T12:59:51;101998.22;;;27.55;36.23
70248;BME280;57641;51.416;5.506;2022-07-22T13:02:16;101993.34;;;27.57;36.85
70248;BME280;57641;51.416;5.506;2022-07-22T13:04:42;101997.28;;;27.72;36.94